Terminal Aerodrome Forecast
Issued by NWS

Home | Current Version | Previous Version | Text Only | Print | Product List | Glossary On
Versions: 1 2 3 4 5 6 7 8 9 10 11 12 13 14 15
000
FTUS42 KMLB 182342
TAFISM
TAF
KISM 182342Z 1900/1924 04009KT P6SM FEW040 SCT120
     FM190200 01007KT P6SM FEW050 SCT250
     FM191500 03010KT P6SM FEW025 SCT050
     FM191800 04010G18KT P6SM SCT040 BKN100=

USA.gov is the U.S. government's official web portal to all federal, state and local government web resources and services.